EAE weather

Siwo Airport
Emae Island, Shefa, Vanuatu

Public forecast

Using degrees Celsius for public forecast. Weather courtesy of forecast.io.

Closest aviation weather report (METAR) to Siwo Airport

Closest report is Bauerfield International Airport, 36.6 nm (67.8 km) S. Retrieved 2019/12/09 18:00 UTC (2 minutes ago):

NVVV 091800Z 02003KT 9999 FEW025 SCT110 BKN300 23/22 Q1011

Closest aviation forecast (TAF) to Siwo Airport

Forecast is more than 6 hours old.

Closest forecast is Bauerfield International Airport, 36.6 nm (67.8 km) S. Retrieved 2019/12/09 06:27 UTC (12 hours ago):

TAF NVVV 090430Z 0906/1006 09010KT 9999 SCT020 PROB30 INTER 0906/0912 9000 SHRA BKN018